createdAt,value
2019-02-28T00:07:45.817Z,10.30
2019-02-28T00:17:45.917Z,10.50
2019-02-28T00:27:45.955Z,10.49
2019-02-28T00:37:45.905Z,10.34
2019-02-28T00:47:47.517Z,10.38
2019-02-28T00:57:45.874Z,10.31
2019-02-28T01:07:48.064Z,10.08
2019-02-28T01:17:45.901Z,9.90
2019-02-28T01:27:46.796Z,9.75
2019-02-28T01:37:45.963Z,9.72
2019-02-28T01:47:51.780Z,9.64
2019-02-28T01:57:45.865Z,9.49
2019-02-28T02:07:45.926Z,9.44
2019-02-28T02:17:45.989Z,9.27
2019-02-28T02:27:45.904Z,9.15
2019-02-28T02:37:45.968Z,8.97
2019-02-28T02:47:45.883Z,8.89
2019-02-28T02:57:50.489Z,8.99
2019-02-28T03:07:45.932Z,8.89
2019-02-28T03:17:47.106Z,8.88
2019-02-28T03:27:45.958Z,8.79
2019-02-28T03:37:45.883Z,8.77
2019-02-28T03:47:45.869Z,8.84
2019-02-28T03:57:45.821Z,8.80
2019-02-28T04:07:52.763Z,8.78
2019-02-28T04:17:45.881Z,8.73
2019-02-28T04:27:45.800Z,8.67
2019-02-28T04:37:47.193Z,8.63
2019-02-28T04:47:45.839Z,8.48
2019-02-28T04:57:45.811Z,8.40
2019-02-28T05:07:46.040Z,8.38
2019-02-28T05:17:45.867Z,8.39
2019-02-28T05:27:45.892Z,8.45
2019-02-28T05:37:48.315Z,8.56
2019-02-28T05:47:47.195Z,8.49
2019-02-28T05:57:45.865Z,8.07
2019-02-28T06:07:45.859Z,7.95
2019-02-28T06:17:45.903Z,7.35
2019-02-28T06:27:50.453Z,7.09
2019-02-28T06:37:46.006Z,7.33
2019-02-28T06:47:48.622Z,7.59
2019-02-28T06:57:45.851Z,7.67
2019-02-28T07:07:49.975Z,7.67
2019-02-28T07:17:48.114Z,8.26
2019-02-28T07:27:46.832Z,9.20
2019-02-28T07:37:45.945Z,9.73
2019-02-28T07:47:51.703Z,10.50
2019-02-28T07:57:51.261Z,11.22
2019-02-28T08:07:50.295Z,11.42
2019-02-28T08:17:46.236Z,11.24
2019-02-28T08:27:45.923Z,11.12
2019-02-28T08:37:45.974Z,11.30
2019-02-28T08:47:45.975Z,11.55
2019-02-28T08:57:54.413Z,11.59
2019-02-28T09:07:50.915Z,11.66
2019-02-28T09:17:45.937Z,11.80
2019-02-28T09:27:45.874Z,11.91
2019-02-28T09:37:46.731Z,11.95
2019-02-28T09:47:45.981Z,11.97
2019-02-28T09:57:45.930Z,11.90
2019-02-28T10:07:45.947Z,12.15
2019-02-28T10:17:45.881Z,12.44
2019-02-28T10:27:45.856Z,12.53
2019-02-28T10:37:45.943Z,12.86
2019-02-28T10:47:49.394Z,13.37
2019-02-28T10:57:45.972Z,13.81
2019-02-28T11:07:46.830Z,14.55
2019-02-28T11:17:45.902Z,14.55
2019-02-28T11:27:47.003Z,14.28
2019-02-28T11:37:46.185Z,13.15
2019-02-28T11:47:45.841Z,11.68
2019-02-28T11:57:45.859Z,10.16
2019-02-28T12:07:47.489Z,9.80
2019-02-28T12:17:46.969Z,9.77
2019-02-28T12:27:46.498Z,9.73
2019-02-28T12:37:46.405Z,9.87
2019-02-28T12:47:46.521Z,10.02
2019-02-28T12:57:45.939Z,10.28
2019-02-28T13:07:48.506Z,10.19
2019-02-28T13:17:45.980Z,10.21
2019-02-28T13:27:46.161Z,10.34
2019-02-28T13:37:49.324Z,10.64
2019-02-28T13:47:47.643Z,10.69
2019-02-28T13:57:47.007Z,10.85
2019-02-28T14:07:47.036Z,10.95
2019-02-28T14:17:47.595Z,11.06
2019-02-28T14:27:45.937Z,11.16
2019-02-28T14:37:45.942Z,11.40
2019-02-28T14:47:53.944Z,11.37
2019-02-28T14:57:48.802Z,11.43
2019-02-28T15:07:45.874Z,11.23
2019-02-28T15:17:45.970Z,11.23
2019-02-28T15:27:45.826Z,10.87
2019-02-28T15:37:46.668Z,10.71
2019-02-28T15:47:45.867Z,10.66
2019-02-28T15:57:45.839Z,10.61
2019-02-28T16:07:46.877Z,10.55
2019-02-28T16:17:46.086Z,10.54
2019-02-28T16:27:46.055Z,10.57
2019-02-28T16:37:45.988Z,10.64
2019-02-28T16:47:45.853Z,10.71
2019-02-28T16:57:47.033Z,10.58
2019-02-28T17:07:45.864Z,10.44
2019-02-28T17:17:47.084Z,10.40
2019-02-28T17:27:46.046Z,10.44
2019-02-28T17:37:45.992Z,10.51
2019-02-28T17:47:45.870Z,10.48
2019-02-28T17:57:48.807Z,10.19
2019-02-28T18:07:45.921Z,10.00
2019-02-28T18:17:45.747Z,10.08
2019-02-28T18:27:46.772Z,9.93
2019-02-28T18:37:45.799Z,9.77
2019-02-28T18:47:45.778Z,9.76
2019-02-28T18:57:46.592Z,9.82
2019-02-28T19:07:45.832Z,9.82
2019-02-28T19:17:45.780Z,9.98
2019-02-28T19:27:45.820Z,10.07
2019-02-28T19:37:46.646Z,10.11
2019-02-28T19:47:47.491Z,9.83
2019-02-28T19:57:45.796Z,9.30
2019-02-28T20:07:45.813Z,9.15
2019-02-28T20:17:45.662Z,9.06
2019-02-28T20:27:46.801Z,9.08
2019-02-28T20:37:46.047Z,9.01
2019-02-28T20:47:45.798Z,9.06
2019-02-28T20:57:45.998Z,9.11
2019-02-28T21:07:45.819Z,9.14
2019-02-28T21:17:45.800Z,9.08
2019-02-28T21:27:45.806Z,8.92
2019-02-28T21:37:45.778Z,8.91
2019-02-28T21:47:45.878Z,8.94
2019-02-28T21:57:45.885Z,8.92
2019-02-28T22:07:45.761Z,8.89
2019-02-28T22:17:45.800Z,8.59
2019-02-28T22:27:45.969Z,8.58
2019-02-28T22:37:45.879Z,8.50
2019-02-28T22:47:46.313Z,8.57
2019-02-28T22:57:45.745Z,8.74
2019-02-28T23:07:45.764Z,8.81
2019-02-28T23:17:45.721Z,8.80
2019-02-28T23:27:45.749Z,8.85
2019-02-28T23:37:45.801Z,8.93
2019-02-28T23:47:53.116Z,8.90
2019-02-28T23:57:45.743Z,8.91
